sensor_id;sensor_type;location;lat;lon;timestamp;pressure;altitude;pressure_sealevel;temperature
9119;BMP180;4594;50.994;7.126;2023-04-12T00:01:09;99897.00;;;15.40
9119;BMP180;4594;50.994;7.126;2023-04-12T00:03:34;99876.00;;;15.40
9119;BMP180;4594;50.994;7.126;2023-04-12T00:06:01;99876.00;;;15.30
9119;BMP180;4594;50.994;7.126;2023-04-12T00:08:32;99874.00;;;15.20
9119;BMP180;4594;50.994;7.126;2023-04-12T00:11:01;99884.00;;;15.10
9119;BMP180;4594;50.994;7.126;2023-04-12T00:13:28;99872.00;;;15.00
9119;BMP180;4594;50.994;7.126;2023-04-12T00:15:54;99867.00;;;14.90
9119;BMP180;4594;50.994;7.126;2023-04-12T00:18:20;99866.00;;;14.90
9119;BMP180;4594;50.994;7.126;2023-04-12T00:20:50;99846.00;;;14.80
9119;BMP180;4594;50.994;7.126;2023-04-12T00:23:16;99841.00;;;14.80
9119;BMP180;4594;50.994;7.126;2023-04-12T00:25:43;99825.00;;;14.70
9119;BMP180;4594;50.994;7.126;2023-04-12T00:28:10;99847.00;;;14.60
9119;BMP180;4594;50.994;7.126;2023-04-12T00:30:35;99845.00;;;14.50
9119;BMP180;4594;50.994;7.126;2023-04-12T00:33:01;99839.00;;;14.50
9119;BMP180;4594;50.994;7.126;2023-04-12T00:35:27;99810.00;;;14.40
9119;BMP180;4594;50.994;7.126;2023-04-12T00:37:53;99804.00;;;14.30
9119;BMP180;4594;50.994;7.126;2023-04-12T00:40:19;99804.00;;;14.20
9119;BMP180;4594;50.994;7.126;2023-04-12T00:42:45;99798.00;;;14.10
9119;BMP180;4594;50.994;7.126;2023-04-12T00:45:12;99793.00;;;14.10
9119;BMP180;4594;50.994;7.126;2023-04-12T00:47:40;99775.00;;;14.00
9119;BMP180;4594;50.994;7.126;2023-04-12T00:50:09;99773.00;;;14.00
9119;BMP180;4594;50.994;7.126;2023-04-12T00:52:35;99779.00;;;13.90
9119;BMP180;4594;50.994;7.126;2023-04-12T00:55:06;99773.00;;;13.80
9119;BMP180;4594;50.994;7.126;2023-04-12T00:57:38;99770.00;;;13.80
9119;BMP180;4594;50.994;7.126;2023-04-12T01:00:09;99742.00;;;13.70
9119;BMP180;4594;50.994;7.126;2023-04-12T01:02:42;99747.00;;;13.60
9119;BMP180;4594;50.994;7.126;2023-04-12T01:05:12;99729.00;;;13.60
9119;BMP180;4594;50.994;7.126;2023-04-12T01:11:03;99745.00;;;13.50
9119;BMP180;4594;50.994;7.126;2023-04-12T01:13:51;99728.00;;;13.40
9119;BMP180;4594;50.994;7.126;2023-04-12T01:16:36;99735.00;;;13.40
9119;BMP180;4594;50.994;7.126;2023-04-12T01:22:16;99717.00;;;13.30
9119;BMP180;4594;50.994;7.126;2023-04-12T01:25:12;99720.00;;;13.30
9119;BMP180;4594;50.994;7.126;2023-04-12T01:27:47;99717.00;;;13.30
9119;BMP180;4594;50.994;7.126;2023-04-12T01:30:18;99701.00;;;13.30
9119;BMP180;4594;50.994;7.126;2023-04-12T01:32:49;99709.00;;;13.30
9119;BMP180;4594;50.994;7.126;2023-04-12T01:35:18;99696.00;;;13.30
9119;BMP180;4594;50.994;7.126;2023-04-12T01:37:45;99697.00;;;13.30
9119;BMP180;4594;50.994;7.126;2023-04-12T01:40:12;99686.00;;;13.20
9119;BMP180;4594;50.994;7.126;2023-04-12T01:42:38;99667.00;;;13.20
9119;BMP180;4594;50.994;7.126;2023-04-12T01:45:05;99675.00;;;13.20
9119;BMP180;4594;50.994;7.126;2023-04-12T01:47:35;99672.00;;;13.20
9119;BMP180;4594;50.994;7.126;2023-04-12T01:50:21;99655.00;;;13.20
9119;BMP180;4594;50.994;7.126;2023-04-12T01:54:05;99643.00;;;13.20
9119;BMP180;4594;50.994;7.126;2023-04-12T01:56:08;99639.00;;;13.10
9119;BMP180;4594;50.994;7.126;2023-04-12T01:58:36;99638.00;;;13.10
9119;BMP180;4594;50.994;7.126;2023-04-12T02:01:04;99639.00;;;13.10
9119;BMP180;4594;50.994;7.126;2023-04-12T02:03:32;99635.00;;;13.10
9119;BMP180;4594;50.994;7.126;2023-04-12T02:05:59;99619.00;;;13.10
9119;BMP180;4594;50.994;7.126;2023-04-12T02:08:26;99621.00;;;13.10
9119;BMP180;4594;50.994;7.126;2023-04-12T02:10:52;99610.00;;;13.10
9119;BMP180;4594;50.994;7.126;2023-04-12T02:13:18;99602.00;;;13.00
9119;BMP180;4594;50.994;7.126;2023-04-12T02:15:44;99599.00;;;13.00
9119;BMP180;4594;50.994;7.126;2023-04-12T02:18:11;99602.00;;;13.00
9119;BMP180;4594;50.994;7.126;2023-04-12T02:20:38;99575.00;;;12.90
9119;BMP180;4594;50.994;7.126;2023-04-12T02:23:05;99581.00;;;12.90
9119;BMP180;4594;50.994;7.126;2023-04-12T02:25:31;99575.00;;;12.90
9119;BMP180;4594;50.994;7.126;2023-04-12T02:27:57;99560.00;;;12.80
9119;BMP180;4594;50.994;7.126;2023-04-12T02:30:23;99565.00;;;12.80
9119;BMP180;4594;50.994;7.126;2023-04-12T02:32:49;99570.00;;;12.80
9119;BMP180;4594;50.994;7.126;2023-04-12T02:35:15;99566.00;;;12.80
9119;BMP180;4594;50.994;7.126;2023-04-12T02:37:46;99535.00;;;12.70
9119;BMP180;4594;50.994;7.126;2023-04-12T02:40:12;99538.00;;;12.70
9119;BMP180;4594;50.994;7.126;2023-04-12T02:42:43;99527.00;;;12.70
9119;BMP180;4594;50.994;7.126;2023-04-12T02:45:10;99534.00;;;12.70
9119;BMP180;4594;50.994;7.126;2023-04-12T02:47:36;99524.00;;;12.60
9119;BMP180;4594;50.994;7.126;2023-04-12T02:50:03;99515.00;;;12.60
9119;BMP180;4594;50.994;7.126;2023-04-12T02:52:29;99527.00;;;12.60
9119;BMP180;4594;50.994;7.126;2023-04-12T02:54:57;99491.00;;;12.50
9119;BMP180;4594;50.994;7.126;2023-04-12T02:57:24;99500.00;;;12.50
9119;BMP180;4594;50.994;7.126;2023-04-12T02:59:53;99487.00;;;12.40
9119;BMP180;4594;50.994;7.126;2023-04-12T03:02:20;99475.00;;;12.40
9119;BMP180;4594;50.994;7.126;2023-04-12T03:04:46;99468.00;;;12.40
9119;BMP180;4594;50.994;7.126;2023-04-12T03:07:17;99473.00;;;12.30
9119;BMP180;4594;50.994;7.126;2023-04-12T03:09:49;99463.00;;;12.30
9119;BMP180;4594;50.994;7.126;2023-04-12T03:12:14;99468.00;;;12.30
9119;BMP180;4594;50.994;7.126;2023-04-12T03:14:41;99455.00;;;12.30
9119;BMP180;4594;50.994;7.126;2023-04-12T03:17:08;99452.00;;;12.30
9119;BMP180;4594;50.994;7.126;2023-04-12T03:19:34;99439.00;;;12.30
9119;BMP180;4594;50.994;7.126;2023-04-12T03:22:02;99450.00;;;12.20
9119;BMP180;4594;50.994;7.126;2023-04-12T03:24:29;99442.00;;;12.20
9119;BMP180;4594;50.994;7.126;2023-04-12T03:26:59;99427.00;;;12.20
9119;BMP180;4594;50.994;7.126;2023-04-12T03:29:26;99415.00;;;12.20
9119;BMP180;4594;50.994;7.126;2023-04-12T03:31:52;99416.00;;;12.20
9119;BMP180;4594;50.994;7.126;2023-04-12T03:34:17;99400.00;;;12.20
9119;BMP180;4594;50.994;7.126;2023-04-12T03:36:45;99395.00;;;12.20
9119;BMP180;4594;50.994;7.126;2023-04-12T03:39:10;99390.00;;;12.20
9119;BMP180;4594;50.994;7.126;2023-04-12T03:41:36;99388.00;;;12.20
9119;BMP180;4594;50.994;7.126;2023-04-12T03:44:02;99380.00;;;12.20
9119;BMP180;4594;50.994;7.126;2023-04-12T03:46:28;99372.00;;;12.20
9119;BMP180;4594;50.994;7.126;2023-04-12T04:26:34;99275.00;;;12.10
9119;BMP180;4594;50.994;7.126;2023-04-12T04:29:00;99265.00;;;12.10
9119;BMP180;4594;50.994;7.126;2023-04-12T04:31:30;99255.00;;;12.10
9119;BMP180;4594;50.994;7.126;2023-04-12T04:34:04;99244.00;;;12.10
9119;BMP180;4594;50.994;7.126;2023-04-12T04:36:33;99249.00;;;12.10
9119;BMP180;4594;50.994;7.126;2023-04-12T04:39:00;99230.00;;;12.10
9119;BMP180;4594;50.994;7.126;2023-04-12T04:41:26;99236.00;;;12.10
9119;BMP180;4594;50.994;7.126;2023-04-12T04:43:52;99231.00;;;12.10
9119;BMP180;4594;50.994;7.126;2023-04-12T04:46:20;99233.00;;;12.10
9119;BMP180;4594;50.994;7.126;2023-04-12T04:48:49;99234.00;;;12.10
9119;BMP180;4594;50.994;7.126;2023-04-12T04:51:16;99240.00;;;12.20
9119;BMP180;4594;50.994;7.126;2023-04-12T04:53:42;99235.00;;;12.20
9119;BMP180;4594;50.994;7.126;2023-04-12T04:56:09;99228.00;;;12.20
9119;BMP180;4594;50.994;7.126;2023-04-12T04:58:36;99231.00;;;12.20
9119;BMP180;4594;50.994;7.126;2023-04-12T05:01:01;99218.00;;;12.20
9119;BMP180;4594;50.994;7.126;2023-04-12T05:03:28;99215.00;;;12.20
9119;BMP180;4594;50.994;7.126;2023-04-12T05:05:54;99217.00;;;12.20
9119;BMP180;4594;50.994;7.126;2023-04-12T05:08:23;99217.00;;;12.30
9119;BMP180;4594;50.994;7.126;2023-04-12T05:10:51;99215.00;;;12.30
9119;BMP180;4594;50.994;7.126;2023-04-12T05:13:18;99213.00;;;12.40
9119;BMP180;4594;50.994;7.126;2023-04-12T05:15:44;99211.00;;;12.40
9119;BMP180;4594;50.994;7.126;2023-04-12T05:18:10;99210.00;;;12.40
9119;BMP180;4594;50.994;7.126;2023-04-12T05:20:38;99208.00;;;12.40
9119;BMP180;4594;50.994;7.126;2023-04-12T05:23:04;99203.00;;;12.50
9119;BMP180;4594;50.994;7.126;2023-04-12T05:25:30;99198.00;;;12.50
9119;BMP180;4594;50.994;7.126;2023-04-12T05:27:55;99185.00;;;12.50
9119;BMP180;4594;50.994;7.126;2023-04-12T05:30:21;99186.00;;;12.50
9119;BMP180;4594;50.994;7.126;2023-04-12T05:32:47;99189.00;;;12.40
9119;BMP180;4594;50.994;7.126;2023-04-12T05:35:12;99178.00;;;12.40
9119;BMP180;4594;50.994;7.126;2023-04-12T05:37:38;99154.00;;;12.40
9119;BMP180;4594;50.994;7.126;2023-04-12T05:40:04;99172.00;;;12.40
9119;BMP180;4594;50.994;7.126;2023-04-12T05:42:31;99161.00;;;12.40
9119;BMP180;4594;50.994;7.126;2023-04-12T05:44:57;99147.00;;;12.30
9119;BMP180;4594;50.994;7.126;2023-04-12T05:47:23;99158.00;;;12.30
9119;BMP180;4594;50.994;7.126;2023-04-12T05:49:48;99149.00;;;12.30
9119;BMP180;4594;50.994;7.126;2023-04-12T05:52:14;99148.00;;;12.30
9119;BMP180;4594;50.994;7.126;2023-04-12T05:54:40;99140.00;;;12.20
9119;BMP180;4594;50.994;7.126;2023-04-12T05:57:06;99141.00;;;12.20
9119;BMP180;4594;50.994;7.126;2023-04-12T05:59:31;99139.00;;;12.20
9119;BMP180;4594;50.994;7.126;2023-04-12T06:01:57;99141.00;;;12.20
9119;BMP180;4594;50.994;7.126;2023-04-12T06:04:25;99146.00;;;12.20
9119;BMP180;4594;50.994;7.126;2023-04-12T06:06:51;99135.00;;;12.20
9119;BMP180;4594;50.994;7.126;2023-04-12T06:09:18;99135.00;;;12.20
9119;BMP180;4594;50.994;7.126;2023-04-12T06:11:43;99129.00;;;12.20
9119;BMP180;4594;50.994;7.126;2023-04-12T06:14:10;99128.00;;;12.20
9119;BMP180;4594;50.994;7.126;2023-04-12T06:16:35;99119.00;;;12.20
9119;BMP180;4594;50.994;7.126;2023-04-12T06:19:01;99121.00;;;12.20
9119;BMP180;4594;50.994;7.126;2023-04-12T06:21:27;99127.00;;;12.20
9119;BMP180;4594;50.994;7.126;2023-04-12T06:23:52;99114.00;;;12.20
9119;BMP180;4594;50.994;7.126;2023-04-12T06:26:18;99104.00;;;12.30
9119;BMP180;4594;50.994;7.126;2023-04-12T06:28:44;99099.00;;;12.30
9119;BMP180;4594;50.994;7.126;2023-04-12T06:31:09;99105.00;;;12.30
9119;BMP180;4594;50.994;7.126;2023-04-12T06:33:36;99096.00;;;12.30
9119;BMP180;4594;50.994;7.126;2023-04-12T06:36:03;99092.00;;;12.30
9119;BMP180;4594;50.994;7.126;2023-04-12T06:38:28;99078.00;;;12.40
9119;BMP180;4594;50.994;7.126;2023-04-12T06:40:54;99083.00;;;12.40
9119;BMP180;4594;50.994;7.126;2023-04-12T06:43:20;99074.00;;;12.40
9119;BMP180;4594;50.994;7.126;2023-04-12T06:45:47;99084.00;;;12.40
9119;BMP180;4594;50.994;7.126;2023-04-12T06:48:14;99065.00;;;12.50
9119;BMP180;4594;50.994;7.126;2023-04-12T06:50:40;99075.00;;;12.50
9119;BMP180;4594;50.994;7.126;2023-04-12T06:53:06;99061.00;;;12.50
9119;BMP180;4594;50.994;7.126;2023-04-12T06:55:32;99054.00;;;12.50
9119;BMP180;4594;50.994;7.126;2023-04-12T06:57:57;99054.00;;;12.50
9119;BMP180;4594;50.994;7.126;2023-04-12T07:00:23;99047.00;;;12.50
9119;BMP180;4594;50.994;7.126;2023-04-12T07:02:49;99037.00;;;12.60
9119;BMP180;4594;50.994;7.126;2023-04-12T07:05:15;99029.00;;;12.70
9119;BMP180;4594;50.994;7.126;2023-04-12T07:07:41;99032.00;;;12.70
9119;BMP180;4594;50.994;7.126;2023-04-12T07:10:07;99026.00;;;12.70
9119;BMP180;4594;50.994;7.126;2023-04-12T07:12:33;99028.00;;;12.80
9119;BMP180;4594;50.994;7.126;2023-04-12T07:14:58;99025.00;;;12.80
9119;BMP180;4594;50.994;7.126;2023-04-12T07:17:24;99013.00;;;12.90
9119;BMP180;4594;50.994;7.126;2023-04-12T07:19:53;99005.00;;;12.90
9119;BMP180;4594;50.994;7.126;2023-04-12T07:22:19;99007.00;;;12.90
9119;BMP180;4594;50.994;7.126;2023-04-12T07:24:45;98995.00;;;12.90
9119;BMP180;4594;50.994;7.126;2023-04-12T07:27:11;99003.00;;;13.00
9119;BMP180;4594;50.994;7.126;2023-04-12T07:29:37;99003.00;;;13.00
9119;BMP180;4594;50.994;7.126;2023-04-12T07:33:59;98985.00;;;12.70
9119;BMP180;4594;50.994;7.126;2023-04-12T07:36:27;98984.00;;;12.80
9119;BMP180;4594;50.994;7.126;2023-04-12T07:38:52;98968.00;;;12.90
9119;BMP180;4594;50.994;7.126;2023-04-12T07:41:21;98966.00;;;12.90
9119;BMP180;4594;50.994;7.126;2023-04-12T07:43:47;98982.00;;;13.00
9119;BMP180;4594;50.994;7.126;2023-04-12T07:46:13;98969.00;;;13.00
9119;BMP180;4594;50.994;7.126;2023-04-12T07:48:38;98962.00;;;13.10
9119;BMP180;4594;50.994;7.126;2023-04-12T07:51:04;98946.00;;;13.10
9119;BMP180;4594;50.994;7.126;2023-04-12T07:53:30;98952.00;;;13.20
9119;BMP180;4594;50.994;7.126;2023-04-12T07:55:56;98948.00;;;13.30
9119;BMP180;4594;50.994;7.126;2023-04-12T07:58:23;98950.00;;;13.40
9119;BMP180;4594;50.994;7.126;2023-04-12T08:00:50;98952.00;;;13.40
9119;BMP180;4594;50.994;7.126;2023-04-12T08:03:17;98952.00;;;13.50
9119;BMP180;4594;50.994;7.126;2023-04-12T08:05:44;98950.00;;;13.50
9119;BMP180;4594;50.994;7.126;2023-04-12T08:08:10;98952.00;;;13.60
9119;BMP180;4594;50.994;7.126;2023-04-12T08:10:38;98947.00;;;13.60
9119;BMP180;4594;50.994;7.126;2023-04-12T08:13:05;98956.00;;;13.60
9119;BMP180;4594;50.994;7.126;2023-04-12T08:15:31;98962.00;;;13.70
9119;BMP180;4594;50.994;7.126;2023-04-12T08:17:57;98950.00;;;13.70
9119;BMP180;4594;50.994;7.126;2023-04-12T08:20:22;98940.00;;;13.60
9119;BMP180;4594;50.994;7.126;2023-04-12T08:22:48;98933.00;;;13.70
9119;BMP180;4594;50.994;7.126;2023-04-12T08:25:14;98925.00;;;13.70
9119;BMP180;4594;50.994;7.126;2023-04-12T08:27:42;98931.00;;;13.80
9119;BMP180;4594;50.994;7.126;2023-04-12T08:30:09;98945.00;;;13.80
9119;BMP180;4594;50.994;7.126;2023-04-12T08:32:36;98939.00;;;13.80
9119;BMP180;4594;50.994;7.126;2023-04-12T08:35:05;98938.00;;;13.80
9119;BMP180;4594;50.994;7.126;2023-04-12T08:37:32;98933.00;;;13.90
9119;BMP180;4594;50.994;7.126;2023-04-12T08:40:05;98924.00;;;13.90
9119;BMP180;4594;50.994;7.126;2023-04-12T08:42:36;98924.00;;;14.00
9119;BMP180;4594;50.994;7.126;2023-04-12T08:45:06;98915.00;;;14.20
9119;BMP180;4594;50.994;7.126;2023-04-12T08:47:36;98900.00;;;14.40
9119;BMP180;4594;50.994;7.126;2023-04-12T08:50:03;98915.00;;;14.50
9119;BMP180;4594;50.994;7.126;2023-04-12T08:52:33;98909.00;;;14.60
9119;BMP180;4594;50.994;7.126;2023-04-12T08:55:02;98917.00;;;14.70
9119;BMP180;4594;50.994;7.126;2023-04-12T08:57:29;98922.00;;;14.70
9119;BMP180;4594;50.994;7.126;2023-04-12T08:59:59;98916.00;;;14.70
9119;BMP180;4594;50.994;7.126;2023-04-12T09:02:26;98927.00;;;14.70
9119;BMP180;4594;50.994;7.126;2023-04-12T09:04:52;98922.00;;;14.70
9119;BMP180;4594;50.994;7.126;2023-04-12T09:07:20;98890.00;;;14.70
9119;BMP180;4594;50.994;7.126;2023-04-12T09:10:02;98889.00;;;14.70
9119;BMP180;4594;50.994;7.126;2023-04-12T09:12:29;98936.00;;;14.70
9119;BMP180;4594;50.994;7.126;2023-04-12T09:15:08;98900.00;;;14.90
9119;BMP180;4594;50.994;7.126;2023-04-12T09:17:35;98892.00;;;14.90
9119;BMP180;4594;50.994;7.126;2023-04-12T09:22:41;98873.00;;;15.10
9119;BMP180;4594;50.994;7.126;2023-04-12T09:25:14;98899.00;;;15.20
9119;BMP180;4594;50.994;7.126;2023-04-12T09:27:51;98914.00;;;15.20
9119;BMP180;4594;50.994;7.126;2023-04-12T09:30:19;98899.00;;;15.20
9119;BMP180;4594;50.994;7.126;2023-04-12T09:32:46;98894.00;;;15.20
9119;BMP180;4594;50.994;7.126;2023-04-12T09:35:17;98891.00;;;15.20
9119;BMP180;4594;50.994;7.126;2023-04-12T09:37:43;98889.00;;;15.20
9119;BMP180;4594;50.994;7.126;2023-04-12T09:40:09;98884.00;;;15.20
9119;BMP180;4594;50.994;7.126;2023-04-12T09:42:52;98885.00;;;15.20
9119;BMP180;4594;50.994;7.126;2023-04-12T09:45:23;98874.00;;;15.20
9119;BMP180;4594;50.994;7.126;2023-04-12T09:47:50;98873.00;;;15.30
9119;BMP180;4594;50.994;7.126;2023-04-12T09:50:27;98896.00;;;15.30
9119;BMP180;4594;50.994;7.126;2023-04-12T09:52:55;98887.00;;;15.40
9119;BMP180;4594;50.994;7.126;2023-04-12T09:55:24;98872.00;;;15.40
9119;BMP180;4594;50.994;7.126;2023-04-12T09:57:52;98885.00;;;15.50
9119;BMP180;4594;50.994;7.126;2023-04-12T10:00:21;98868.00;;;15.50
9119;BMP180;4594;50.994;7.126;2023-04-12T10:02:49;98883.00;;;15.60
9119;BMP180;4594;50.994;7.126;2023-04-12T10:05:18;98867.00;;;15.60
9119;BMP180;4594;50.994;7.126;2023-04-12T10:07:46;98875.00;;;15.60
9119;BMP180;4594;50.994;7.126;2023-04-12T10:10:14;98864.00;;;15.60
9119;BMP180;4594;50.994;7.126;2023-04-12T10:12:43;98854.00;;;15.60
9119;BMP180;4594;50.994;7.126;2023-04-12T10:15:10;98840.00;;;15.60
9119;BMP180;4594;50.994;7.126;2023-04-12T10:17:51;98849.00;;;15.70
9119;BMP180;4594;50.994;7.126;2023-04-12T10:20:19;98852.00;;;15.90
9119;BMP180;4594;50.994;7.126;2023-04-12T10:22:48;98848.00;;;16.20
9119;BMP180;4594;50.994;7.126;2023-04-12T10:25:24;98840.00;;;16.50
9119;BMP180;4594;50.994;7.126;2023-04-12T10:27:51;98843.00;;;16.60
9119;BMP180;4594;50.994;7.126;2023-04-12T10:30:36;98844.00;;;16.70
9119;BMP180;4594;50.994;7.126;2023-04-12T10:38:13;98846.00;;;16.70
9119;BMP180;4594;50.994;7.126;2023-04-12T10:41:21;98832.00;;;16.60
9119;BMP180;4594;50.994;7.126;2023-04-12T10:43:49;98810.00;;;16.60
9119;BMP180;4594;50.994;7.126;2023-04-12T10:49:10;98824.00;;;16.60
9119;BMP180;4594;50.994;7.126;2023-04-12T10:51:36;98834.00;;;16.60
9119;BMP180;4594;50.994;7.126;2023-04-12T10:56:45;98844.00;;;16.70
9119;BMP180;4594;50.994;7.126;2023-04-12T10:59:14;98833.00;;;16.70
9119;BMP180;4594;50.994;7.126;2023-04-12T11:02:08;98848.00;;;16.70
9119;BMP180;4594;50.994;7.126;2023-04-12T11:04:35;98839.00;;;16.80
9119;BMP180;4594;50.994;7.126;2023-04-12T11:07:06;98833.00;;;16.80
9119;BMP180;4594;50.994;7.126;2023-04-12T11:09:44;98841.00;;;16.80
9119;BMP180;4594;50.994;7.126;2023-04-12T11:12:14;98841.00;;;16.80
9119;BMP180;4594;50.994;7.126;2023-04-12T11:14:51;98840.00;;;16.80
9119;BMP180;4594;50.994;7.126;2023-04-12T11:19:51;98843.00;;;16.90
9119;BMP180;4594;50.994;7.126;2023-04-12T11:22:19;98864.00;;;17.00
9119;BMP180;4594;50.994;7.126;2023-04-12T11:24:50;98873.00;;;17.00
9119;BMP180;4594;50.994;7.126;2023-04-12T11:27:19;98879.00;;;16.90
9119;BMP180;4594;50.994;7.126;2023-04-12T11:29:49;98876.00;;;16.90
9119;BMP180;4594;50.994;7.126;2023-04-12T11:32:15;98869.00;;;16.90
9119;BMP180;4594;50.994;7.126;2023-04-12T11:34:44;98867.00;;;16.90
9119;BMP180;4594;50.994;7.126;2023-04-12T11:37:11;98875.00;;;16.90
9119;BMP180;4594;50.994;7.126;2023-04-12T11:39:42;98872.00;;;16.90
9119;BMP180;4594;50.994;7.126;2023-04-12T11:42:23;98888.00;;;16.90
9119;BMP180;4594;50.994;7.126;2023-04-12T11:44:50;98871.00;;;16.90
9119;BMP180;4594;50.994;7.126;2023-04-12T11:47:19;98877.00;;;17.00
9119;BMP180;4594;50.994;7.126;2023-04-12T11:49:57;98878.00;;;17.10
9119;BMP180;4594;50.994;7.126;2023-04-12T11:52:29;98867.00;;;17.20
9119;BMP180;4594;50.994;7.126;2023-04-12T11:54:55;98863.00;;;17.30
9119;BMP180;4594;50.994;7.126;2023-04-12T11:57:24;98885.00;;;17.40
9119;BMP180;4594;50.994;7.126;2023-04-12T11:59:50;98866.00;;;17.50
9119;BMP180;4594;50.994;7.126;2023-04-12T12:02:17;98873.00;;;17.60
9119;BMP180;4594;50.994;7.126;2023-04-12T12:04:46;98875.00;;;17.70
9119;BMP180;4594;50.994;7.126;2023-04-12T12:07:14;98882.00;;;17.90
9119;BMP180;4594;50.994;7.126;2023-04-12T12:09:42;98879.00;;;18.00
9119;BMP180;4594;50.994;7.126;2023-04-12T12:12:10;98881.00;;;18.10
9119;BMP180;4594;50.994;7.126;2023-04-12T12:14:37;98890.00;;;18.20
9119;BMP180;4594;50.994;7.126;2023-04-12T12:17:15;98882.00;;;18.20
9119;BMP180;4594;50.994;7.126;2023-04-12T12:19:44;98874.00;;;18.20
9119;BMP180;4594;50.994;7.126;2023-04-12T12:22:17;98878.00;;;18.20
9119;BMP180;4594;50.994;7.126;2023-04-12T12:25:04;98890.00;;;18.20
9119;BMP180;4594;50.994;7.126;2023-04-12T12:27:37;98886.00;;;18.20
9119;BMP180;4594;50.994;7.126;2023-04-12T12:30:06;98889.00;;;18.20
9119;BMP180;4594;50.994;7.126;2023-04-12T12:32:34;98875.00;;;18.30
9119;BMP180;4594;50.994;7.126;2023-04-12T12:35:01;98881.00;;;18.30
9119;BMP180;4594;50.994;7.126;2023-04-12T12:37:29;98862.00;;;18.40
9119;BMP180;4594;50.994;7.126;2023-04-12T12:40:05;98877.00;;;18.50
9119;BMP180;4594;50.994;7.126;2023-04-12T12:42:34;98884.00;;;18.50
9119;BMP180;4594;50.994;7.126;2023-04-12T12:45:01;98866.00;;;18.50
9119;BMP180;4594;50.994;7.126;2023-04-12T12:47:29;98877.00;;;18.50
9119;BMP180;4594;50.994;7.126;2023-04-12T12:49:56;98842.00;;;18.60
9119;BMP180;4594;50.994;7.126;2023-04-12T12:52:22;98873.00;;;18.70
9119;BMP180;4594;50.994;7.126;2023-04-12T12:54:48;98867.00;;;18.90
9119;BMP180;4594;50.994;7.126;2023-04-12T12:57:14;98867.00;;;19.00
9119;BMP180;4594;50.994;7.126;2023-04-12T12:59:40;98856.00;;;19.10
9119;BMP180;4594;50.994;7.126;2023-04-12T13:02:06;98851.00;;;19.10
9119;BMP180;4594;50.994;7.126;2023-04-12T13:04:32;98839.00;;;19.10
9119;BMP180;4594;50.994;7.126;2023-04-12T13:06:58;98868.00;;;19.10
9119;BMP180;4594;50.994;7.126;2023-04-12T13:09:24;98844.00;;;19.10
9119;BMP180;4594;50.994;7.126;2023-04-12T13:11:50;98853.00;;;19.10
9119;BMP180;4594;50.994;7.126;2023-04-12T13:14:15;98846.00;;;19.10
9119;BMP180;4594;50.994;7.126;2023-04-12T13:16:41;98863.00;;;19.00
9119;BMP180;4594;50.994;7.126;2023-04-12T13:19:07;98845.00;;;19.00
9119;BMP180;4594;50.994;7.126;2023-04-12T13:21:32;98849.00;;;19.00
9119;BMP180;4594;50.994;7.126;2023-04-12T13:23:58;98862.00;;;19.00
9119;BMP180;4594;50.994;7.126;2023-04-12T13:26:24;98869.00;;;19.00
9119;BMP180;4594;50.994;7.126;2023-04-12T13:28:50;98866.00;;;19.00
9119;BMP180;4594;50.994;7.126;2023-04-12T13:31:16;98873.00;;;19.00
9119;BMP180;4594;50.994;7.126;2023-04-12T13:33:41;98886.00;;;19.00
9119;BMP180;4594;50.994;7.126;2023-04-12T13:36:07;98886.00;;;19.00
9119;BMP180;4594;50.994;7.126;2023-04-12T13:38:33;98886.00;;;19.00
9119;BMP180;4594;50.994;7.126;2023-04-12T13:40:59;98890.00;;;19.00
9119;BMP180;4594;50.994;7.126;2023-04-12T13:43:24;98873.00;;;18.90
9119;BMP180;4594;50.994;7.126;2023-04-12T13:45:50;98880.00;;;18.80
9119;BMP180;4594;50.994;7.126;2023-04-12T13:48:16;98879.00;;;18.80
9119;BMP180;4594;50.994;7.126;2023-04-12T13:50:42;98858.00;;;18.70
9119;BMP180;4594;50.994;7.126;2023-04-12T13:53:07;98872.00;;;18.60
9119;BMP180;4594;50.994;7.126;2023-04-12T13:55:33;98856.00;;;18.60
9119;BMP180;4594;50.994;7.126;2023-04-12T13:57:59;98867.00;;;18.60
9119;BMP180;4594;50.994;7.126;2023-04-12T14:00:25;98863.00;;;18.60
9119;BMP180;4594;50.994;7.126;2023-04-12T14:02:51;98842.00;;;18.70
9119;BMP180;4594;50.994;7.126;2023-04-12T14:05:17;98836.00;;;18.80
9119;BMP180;4594;50.994;7.126;2023-04-12T14:07:43;98846.00;;;18.80
9119;BMP180;4594;50.994;7.126;2023-04-12T14:10:09;98848.00;;;18.90
9119;BMP180;4594;50.994;7.126;2023-04-12T14:12:35;98839.00;;;18.80
9119;BMP180;4594;50.994;7.126;2023-04-12T14:15:01;98841.00;;;18.80
9119;BMP180;4594;50.994;7.126;2023-04-12T14:17:28;98859.00;;;18.80
9119;BMP180;4594;50.994;7.126;2023-04-12T14:19:57;98861.00;;;18.80
9119;BMP180;4594;50.994;7.126;2023-04-12T14:22:23;98848.00;;;18.80
9119;BMP180;4594;50.994;7.126;2023-04-12T14:24:48;98848.00;;;18.90
9119;BMP180;4594;50.994;7.126;2023-04-12T14:27:14;98849.00;;;18.90
9119;BMP180;4594;50.994;7.126;2023-04-12T14:29:40;98844.00;;;19.00
9119;BMP180;4594;50.994;7.126;2023-04-12T14:32:06;98832.00;;;19.00
9119;BMP180;4594;50.994;7.126;2023-04-12T14:34:32;98854.00;;;19.00
9119;BMP180;4594;50.994;7.126;2023-04-12T14:36:58;98845.00;;;18.90
9119;BMP180;4594;50.994;7.126;2023-04-12T14:39:24;98854.00;;;18.90
9119;BMP180;4594;50.994;7.126;2023-04-12T14:41:51;98867.00;;;18.80
9119;BMP180;4594;50.994;7.126;2023-04-12T14:44:17;98861.00;;;18.90
9119;BMP180;4594;50.994;7.126;2023-04-12T14:46:44;98863.00;;;18.80
9119;BMP180;4594;50.994;7.126;2023-04-12T14:49:09;98874.00;;;18.80
9119;BMP180;4594;50.994;7.126;2023-04-12T14:51:35;98880.00;;;18.70
9119;BMP180;4594;50.994;7.126;2023-04-12T14:54:01;98885.00;;;18.60
9119;BMP180;4594;50.994;7.126;2023-04-12T14:56:27;98875.00;;;18.60
9119;BMP180;4594;50.994;7.126;2023-04-12T14:58:54;98888.00;;;18.60
9119;BMP180;4594;50.994;7.126;2023-04-12T15:01:24;98876.00;;;18.60
9119;BMP180;4594;50.994;7.126;2023-04-12T15:03:53;98890.00;;;18.60
9119;BMP180;4594;50.994;7.126;2023-04-12T15:06:21;98893.00;;;18.70
9119;BMP180;4594;50.994;7.126;2023-04-12T15:08:49;98880.00;;;18.70
9119;BMP180;4594;50.994;7.126;2023-04-12T15:11:18;98885.00;;;18.70
9119;BMP180;4594;50.994;7.126;2023-04-12T15:13:46;98889.00;;;18.60
9119;BMP180;4594;50.994;7.126;2023-04-12T15:16:14;98894.00;;;18.60
9119;BMP180;4594;50.994;7.126;2023-04-12T15:18:40;98882.00;;;18.50
9119;BMP180;4594;50.994;7.126;2023-04-12T15:21:08;98897.00;;;18.40
9119;BMP180;4594;50.994;7.126;2023-04-12T15:23:35;98897.00;;;18.30
9119;BMP180;4594;50.994;7.126;2023-04-12T15:26:03;98899.00;;;18.20
9119;BMP180;4594;50.994;7.126;2023-04-12T15:28:31;98904.00;;;18.10
9119;BMP180;4594;50.994;7.126;2023-04-12T15:30:58;98915.00;;;18.00
9119;BMP180;4594;50.994;7.126;2023-04-12T15:33:24;98920.00;;;18.00
9119;BMP180;4594;50.994;7.126;2023-04-12T15:35:53;98942.00;;;17.90
9119;BMP180;4594;50.994;7.126;2023-04-12T15:38:23;98951.00;;;17.80
9119;BMP180;4594;50.994;7.126;2023-04-12T15:41:00;98957.00;;;17.70